Terminal Aerodrome Forecast
Issued by NWS

Home | Current Version | Previous Version | Text Only | Print | Product List | Glossary On
Versions: 1 2 3 4 5 6 7 8 9 10 11 12 13 14 15 16 17 18 19 20 21 22 23 24 25 26 27 28 29 30 31 32 33 34 35 36 37 38 39 40 41 42 43 44 45 46 47 48 49 50
000
FTUS43 KMKX 161129
TAFENW
TAF
KENW 161129Z 1612/1712 00000KT 4SM -SNPL OVC050
     FM161500 12004KT 4SM -FZRAPL OVC025
     FM161700 11005KT 3SM -RA BR OVC008
     FM162000 10006KT 3SM RA BR OVC003
     FM170400 09006KT 3/4SM -RA BR OVC003
     FM170700 09006KT 1/2SM -RA FG OVC003=

USA.gov is the U.S. government's official web portal to all federal, state and local government web resources and services.